createdAt,value
2023-04-02T00:00:00.911Z,24.65
2023-04-02T00:01:26.721Z,24.05
2023-04-02T00:02:32.759Z,25.27
2023-04-02T00:04:22.074Z,26.45
2023-04-02T00:05:52.791Z,29.75
2023-04-02T00:06:57.741Z,26.27
2023-04-02T00:08:00.779Z,26.92
2023-04-02T00:09:18.532Z,28.40
2023-04-02T00:10:28.861Z,24.02
2023-04-02T00:11:35.150Z,29.23
2023-04-02T00:12:36.998Z,28.45
2023-04-02T00:13:42.177Z,29.40
2023-04-02T00:14:47.740Z,29.23
2023-04-02T00:15:51.897Z,32.75
2023-04-02T00:16:54.454Z,33.28
2023-04-02T00:17:57.694Z,28.95
2023-04-02T00:19:04.617Z,30.77
2023-04-02T00:20:10.243Z,29.67
2023-04-02T00:21:14.853Z,31.90
2023-04-02T00:22:19.688Z,30.00
2023-04-02T00:23:23.130Z,30.48
2023-04-02T00:24:26.103Z,27.45
2023-04-02T00:25:43.052Z,26.73
2023-04-02T00:26:47.360Z,27.70
2023-04-02T00:27:50.193Z,28.80
2023-04-02T00:28:52.554Z,28.00
2023-04-02T00:29:56.900Z,23.83
2023-04-02T00:30:59.649Z,24.17
2023-04-02T00:32:02.504Z,23.38
2023-04-02T00:33:04.418Z,24.33
2023-04-02T00:34:10.140Z,22.95
2023-04-02T00:35:18.939Z,23.88
2023-04-02T00:36:22.898Z,24.45
2023-04-02T00:37:28.118Z,24.85
2023-04-02T00:38:33.171Z,23.75
2023-04-02T00:39:40.750Z,25.38
2023-04-02T00:40:42.605Z,23.70
2023-04-02T00:41:46.765Z,24.92
2023-04-02T00:42:49.302Z,23.67
2023-04-02T00:43:53.752Z,22.85
2023-04-02T00:44:56.311Z,23.77
2023-04-02T00:46:02.975Z,23.15
2023-04-02T00:47:12.872Z,22.80
2023-04-02T00:48:23.231Z,22.98
2023-04-02T00:49:32.600Z,24.45
2023-04-02T00:50:40.732Z,23.42
2023-04-02T00:51:47.155Z,21.63
2023-04-02T00:52:52.603Z,22.83
2023-04-02T00:53:56.350Z,22.90
2023-04-02T00:55:04.549Z,22.70
2023-04-02T00:56:14.800Z,22.58
2023-04-02T00:57:21.879Z,23.23
2023-04-02T00:58:27.575Z,24.27
2023-04-02T00:59:33.240Z,24.17
2023-04-02T01:00:36.604Z,23.35
2023-04-02T01:01:42.670Z,22.73
2023-04-02T01:03:16.316Z,23.67
2023-04-02T01:04:32.482Z,23.90
2023-04-02T01:05:35.194Z,23.25
2023-04-02T01:06:39.312Z,24.02
2023-04-02T01:07:51.880Z,23.45
2023-04-02T01:09:05.324Z,24.73
2023-04-02T01:10:26.438Z,23.83
2023-04-02T01:11:39.242Z,25.02
2023-04-02T01:12:50.587Z,26.45
2023-04-02T01:13:57.719Z,25.80
2023-04-02T01:15:07.931Z,25.52
2023-04-02T01:16:17.917Z,24.30
2023-04-02T01:17:30.505Z,23.42
2023-04-02T01:18:41.202Z,23.50
2023-04-02T01:20:07.511Z,24.60
2023-04-02T01:21:23.007Z,23.50
2023-04-02T01:22:30.792Z,23.77
2023-04-02T01:23:37.001Z,23.83
2023-04-02T01:24:38.913Z,23.42
2023-04-02T01:25:45.071Z,22.88
2023-04-02T01:26:52.507Z,22.92
2023-04-02T01:27:59.725Z,22.42
2023-04-02T01:29:06.800Z,23.13
2023-04-02T01:30:12.024Z,20.77
2023-04-02T01:31:15.456Z,21.08
2023-04-02T01:32:20.701Z,20.90
2023-04-02T01:33:24.013Z,20.42
2023-04-02T01:34:28.329Z,20.17
2023-04-02T01:35:34.347Z,19.75
2023-04-02T01:36:41.998Z,19.83
2023-04-02T01:37:49.502Z,19.20
2023-04-02T01:38:58.718Z,18.85
2023-04-02T01:40:08.807Z,19.40
2023-04-02T01:41:17.309Z,18.83
2023-04-02T01:42:22.300Z,19.23
2023-04-02T01:43:29.472Z,19.58
2023-04-02T01:44:35.249Z,17.98
2023-04-02T01:45:38.842Z,18.65
2023-04-02T01:46:42.563Z,20.45
2023-04-02T01:47:46.423Z,18.85
2023-04-02T01:48:48.922Z,21.45
2023-04-02T01:49:54.907Z,19.70
2023-04-02T01:50:58.674Z,19.48
2023-04-02T01:52:03.305Z,18.90
2023-04-02T01:53:10.200Z,18.90
2023-04-02T01:54:15.329Z,18.65
2023-04-02T01:55:19.563Z,19.13
2023-04-02T01:56:22.724Z,18.92
2023-04-02T01:57:24.821Z,19.02
2023-04-02T01:58:29.471Z,19.15
2023-04-02T01:59:33.393Z,19.92
2023-04-02T02:00:43.199Z,19.42
2023-04-02T02:01:49.329Z,18.73
2023-04-02T02:02:52.865Z,20.27
2023-04-02T02:03:55.794Z,20.58
2023-04-02T02:04:59.269Z,20.33
2023-04-02T02:06:02.269Z,20.13
2023-04-02T02:07:05.207Z,21.55
2023-04-02T02:08:15.817Z,22.45
2023-04-02T02:09:23.288Z,22.98
2023-04-02T02:10:27.606Z,24.83
2023-04-02T02:11:31.630Z,23.83
2023-04-02T02:12:33.460Z,23.00
2023-04-02T02:13:36.778Z,19.65
2023-04-02T02:14:41.113Z,17.25
2023-04-02T02:15:45.027Z,19.02
2023-04-02T02:16:47.491Z,17.95
2023-04-02T02:17:51.007Z,16.50
2023-04-02T02:18:55.368Z,16.80
2023-04-02T02:20:01.536Z,17.52
2023-04-02T02:21:05.663Z,15.15
2023-04-02T02:22:13.005Z,16.42
2023-04-02T02:23:15.560Z,15.10
2023-04-02T02:24:21.634Z,16.80
2023-04-02T02:25:26.416Z,15.68
2023-04-02T02:26:31.187Z,15.20
2023-04-02T02:27:54.155Z,14.30
2023-04-02T02:28:58.413Z,15.10
2023-04-02T02:30:06.160Z,15.02
2023-04-02T02:31:17.219Z,15.07
2023-04-02T02:32:22.365Z,14.80
2023-04-02T02:33:26.958Z,13.73
2023-04-02T02:34:36.220Z,15.05
2023-04-02T02:35:43.029Z,15.02
2023-04-02T02:36:49.158Z,15.20
2023-04-02T02:37:57.568Z,15.02
2023-04-02T02:39:03.492Z,14.18
2023-04-02T02:40:19.820Z,14.43
2023-04-02T02:41:26.426Z,15.05
2023-04-02T02:42:34.995Z,14.73
2023-04-02T02:43:38.664Z,15.77
2023-04-02T02:44:45.412Z,14.10
2023-04-02T02:45:49.893Z,14.05
2023-04-02T02:46:54.756Z,15.00
2023-04-02T02:47:57.779Z,14.60
2023-04-02T02:49:01.924Z,13.80
2023-04-02T02:50:07.628Z,15.05
2023-04-02T02:51:17.799Z,15.13
2023-04-02T02:52:21.438Z,15.98
2023-04-02T02:53:33.147Z,15.38
2023-04-02T02:54:35.915Z,17.58
2023-04-02T02:55:39.013Z,16.30
2023-04-02T02:56:52.380Z,15.63
2023-04-02T02:57:57.530Z,16.27
2023-04-02T02:59:03.153Z,16.08
2023-04-02T03:00:13.328Z,15.02
2023-04-02T03:01:18.743Z,15.82
2023-04-02T03:02:23.134Z,15.52
2023-04-02T03:03:28.115Z,15.20
2023-04-02T03:04:35.844Z,16.13
2023-04-02T03:05:41.458Z,15.65
2023-04-02T03:06:56.305Z,15.48
2023-04-02T03:08:01.260Z,16.98
2023-04-02T03:09:13.488Z,17.02
2023-04-02T03:10:18.919Z,16.42
2023-04-02T03:11:28.139Z,15.98
2023-04-02T03:12:36.968Z,16.77
2023-04-02T03:13:42.022Z,15.85
2023-04-02T03:14:46.598Z,16.92
2023-04-02T03:15:57.129Z,15.30
2023-04-02T03:17:04.033Z,15.98
2023-04-02T03:18:09.505Z,16.20
2023-04-02T03:19:23.847Z,16.88
2023-04-02T03:20:33.366Z,16.80
2023-04-02T03:21:40.142Z,17.75
2023-04-02T03:22:47.942Z,17.52
2023-04-02T03:23:54.058Z,18.45
2023-04-02T03:24:59.558Z,15.38
2023-04-02T03:26:06.895Z,15.15
2023-04-02T03:27:14.821Z,15.20
2023-04-02T03:28:23.046Z,16.30
2023-04-02T03:29:28.068Z,16.98
2023-04-02T03:30:38.793Z,18.92
2023-04-02T03:31:45.256Z,17.45
2023-04-02T03:32:52.791Z,17.42
2023-04-02T03:33:58.181Z,18.13
2023-04-02T03:35:10.041Z,16.83
2023-04-02T03:36:19.253Z,18.20
2023-04-02T03:37:24.316Z,17.70
2023-04-02T03:38:29.579Z,20.05
2023-04-02T03:39:33.526Z,20.00
2023-04-02T03:40:40.413Z,20.20
2023-04-02T03:41:45.312Z,20.05
2023-04-02T03:42:54.714Z,21.33
2023-04-02T03:43:59.804Z,22.58
2023-04-02T03:45:06.992Z,21.45
2023-04-02T03:46:24.420Z,22.45
2023-04-02T03:47:33.030Z,21.80
2023-04-02T03:48:39.746Z,22.40
2023-04-02T03:49:47.719Z,21.38
2023-04-02T03:50:52.632Z,21.70
2023-04-02T03:51:59.976Z,22.33
2023-04-02T03:53:02.852Z,21.67
2023-04-02T03:54:06.317Z,23.02
2023-04-02T03:55:15.959Z,21.10
2023-04-02T03:56:28.378Z,20.55
2023-04-02T03:57:33.965Z,20.38
2023-04-02T03:58:42.037Z,18.90
2023-04-02T03:59:47.515Z,18.08
2023-04-02T04:00:55.838Z,18.67
2023-04-02T04:02:00.931Z,17.40
2023-04-02T04:03:08.204Z,18.90
2023-04-02T04:04:14.522Z,19.23
2023-04-02T04:05:23.101Z,17.30
2023-04-02T04:06:27.691Z,17.73
2023-04-02T04:07:34.459Z,17.20
2023-04-02T04:08:42.563Z,18.00
2023-04-02T04:09:47.113Z,16.67
2023-04-02T04:10:51.825Z,18.90
2023-04-02T04:12:01.075Z,19.45
2023-04-02T04:13:06.044Z,17.75
2023-04-02T04:14:12.128Z,18.25
2023-04-02T04:15:17.052Z,18.58
2023-04-02T04:16:22.776Z,18.58
2023-04-02T04:17:30.355Z,18.15
2023-04-02T04:18:43.184Z,18.55
2023-04-02T04:19:54.999Z,17.90
2023-04-02T04:21:00.787Z,17.60
2023-04-02T04:22:10.929Z,18.48
2023-04-02T04:23:25.837Z,18.13
2023-04-02T04:24:28.949Z,18.45
2023-04-02T04:25:37.339Z,18.80
2023-04-02T04:26:53.388Z,16.40
2023-04-02T04:28:08.193Z,15.40
2023-04-02T04:29:30.636Z,17.33
2023-04-02T04:30:41.978Z,17.80
2023-04-02T04:31:47.230Z,16.75
2023-04-02T04:32:58.399Z,16.33
2023-04-02T04:34:06.799Z,15.95
2023-04-02T04:35:22.541Z,18.48
2023-04-02T04:36:28.392Z,18.27
2023-04-02T04:37:38.495Z,18.60
2023-04-02T04:38:49.230Z,18.85
2023-04-02T04:39:56.927Z,21.55
2023-04-02T04:41:03.416Z,19.10
2023-04-02T04:42:09.259Z,20.02
2023-04-02T04:43:16.158Z,20.30
2023-04-02T04:44:23.277Z,20.38
2023-04-02T04:45:36.910Z,20.95
2023-04-02T04:46:43.068Z,22.73
2023-04-02T04:47:50.205Z,21.02
2023-04-02T04:48:56.816Z,20.10
2023-04-02T04:50:03.896Z,21.85
2023-04-02T04:51:18.510Z,20.17
2023-04-02T04:52:22.556Z,19.80
2023-04-02T04:53:28.651Z,18.65
2023-04-02T04:54:32.542Z,18.77
2023-04-02T04:55:40.384Z,19.25
2023-04-02T04:56:46.920Z,18.25
2023-04-02T04:57:53.488Z,19.60
2023-04-02T04:59:00.256Z,19.08
2023-04-02T05:00:07.291Z,20.42
2023-04-02T05:01:14.962Z,20.15
2023-04-02T05:02:18.820Z,22.30
2023-04-02T05:03:30.079Z,22.80
2023-04-02T05:04:35.764Z,23.10
2023-04-02T05:05:40.914Z,22.83
2023-04-02T05:06:52.133Z,23.90
2023-04-02T05:07:59.941Z,21.98
2023-04-02T05:09:06.970Z,22.75
2023-04-02T05:10:17.223Z,23.42
2023-04-02T05:11:24.433Z,22.08
2023-04-02T05:12:32.816Z,22.65
2023-04-02T05:13:38.816Z,21.52
2023-04-02T05:14:46.006Z,22.33
2023-04-02T05:15:52.356Z,22.20
2023-04-02T05:17:00.421Z,22.13
2023-04-02T05:18:12.968Z,22.20
2023-04-02T05:19:20.107Z,20.80
2023-04-02T05:20:24.754Z,20.58
2023-04-02T05:21:34.324Z,21.58
2023-04-02T05:22:43.097Z,22.95
2023-04-02T05:23:48.238Z,21.65
2023-04-02T05:24:56.286Z,21.90
2023-04-02T05:26:05.570Z,22.02
2023-04-02T05:27:16.515Z,21.92
2023-04-02T05:28:21.155Z,20.58
2023-04-02T05:29:27.993Z,20.13
2023-04-02T05:30:47.079Z,20.38
2023-04-02T05:31:57.839Z,19.15
2023-04-02T05:33:05.133Z,20.50
2023-04-02T05:34:08.421Z,19.38
2023-04-02T05:35:16.799Z,17.35
2023-04-02T05:36:21.604Z,14.20
2023-04-02T05:37:29.332Z,13.20
2023-04-02T05:38:38.835Z,12.65
2023-04-02T05:39:44.932Z,12.45
2023-04-02T05:40:49.346Z,11.48
2023-04-02T05:41:58.416Z,10.32
2023-04-02T05:43:13.342Z,10.55
2023-04-02T05:44:23.057Z,10.13
2023-04-02T05:45:31.202Z,10.23
2023-04-02T05:46:38.847Z,9.27
2023-04-02T05:47:43.271Z,9.25
2023-04-02T05:48:53.499Z,13.70
2023-04-02T05:50:11.474Z,16.55
2023-04-02T05:51:22.460Z,12.10
2023-04-02T05:52:28.368Z,58.67
2023-04-02T05:53:36.601Z,33.78
2023-04-02T05:54:45.967Z,66.10
2023-04-02T05:55:54.472Z,27.55
2023-04-02T05:57:00.650Z,16.23
2023-04-02T05:58:33.974Z,12.50
2023-04-02T05:59:39.424Z,19.50
2023-04-02T06:00:50.088Z,22.75
2023-04-02T06:02:00.413Z,28.73
2023-04-02T06:03:12.752Z,29.80
2023-04-02T06:04:22.240Z,33.92
2023-04-02T06:05:26.837Z,62.13
2023-04-02T06:06:44.361Z,67.25
2023-04-02T06:07:52.587Z,47.47
2023-04-02T06:08:59.004Z,51.95
2023-04-02T06:10:05.755Z,25.75
2023-04-02T06:11:13.218Z,50.05
2023-04-02T06:12:24.352Z,27.58
2023-04-02T06:13:28.356Z,21.55
2023-04-02T06:14:31.729Z,20.27
2023-04-02T06:15:35.027Z,31.75
2023-04-02T06:16:45.918Z,13.73
2023-04-02T06:17:49.038Z,9.60
2023-04-02T06:18:51.896Z,11.25
2023-04-02T06:19:57.413Z,11.20
2023-04-02T06:20:59.335Z,8.38
2023-04-02T06:22:12.056Z,14.30
2023-04-02T06:23:17.996Z,8.07
2023-04-02T06:24:25.306Z,6.55
2023-04-02T06:25:31.121Z,7.35
2023-04-02T06:26:34.275Z,8.50
2023-04-02T06:27:39.676Z,6.43
2023-04-02T06:28:47.850Z,6.15
2023-04-02T06:29:56.651Z,5.57
2023-04-02T06:31:03.417Z,5.38
2023-04-02T06:32:12.802Z,5.70
2023-04-02T06:33:18.504Z,6.35
2023-04-02T06:34:23.657Z,6.40
2023-04-02T06:35:31.374Z,7.95
2023-04-02T06:36:36.342Z,5.95
2023-04-02T06:37:44.477Z,7.28
2023-04-02T06:38:58.196Z,5.43
2023-04-02T06:40:04.645Z,8.65
2023-04-02T06:41:12.879Z,8.60
2023-04-02T06:42:37.668Z,14.15
2023-04-02T06:43:54.290Z,11.10
2023-04-02T06:45:21.949Z,14.02
2023-04-02T06:46:33.161Z,12.38
2023-04-02T06:47:43.421Z,9.52
2023-04-02T06:48:52.839Z,12.13
2023-04-02T06:49:59.847Z,12.55
2023-04-02T06:51:05.949Z,14.25
2023-04-02T06:52:15.510Z,13.43
2023-04-02T06:53:23.195Z,15.60
2023-04-02T06:54:27.338Z,16.40
2023-04-02T06:55:42.019Z,10.10
2023-04-02T06:56:47.554Z,9.77
2023-04-02T06:57:55.025Z,6.55
2023-04-02T06:58:58.075Z,7.00
2023-04-02T07:00:01.009Z,8.48
2023-04-02T07:01:03.924Z,8.02
2023-04-02T07:02:34.172Z,7.97
2023-04-02T07:03:40.978Z,10.70
2023-04-02T07:04:50.713Z,10.00
2023-04-02T07:05:53.798Z,7.85
2023-04-02T07:06:56.802Z,12.27
2023-04-02T07:08:01.775Z,6.15
2023-04-02T07:09:05.059Z,11.60
2023-04-02T07:10:11.764Z,7.85
2023-04-02T07:11:18.746Z,7.93
2023-04-02T07:12:24.753Z,10.90
2023-04-02T07:13:53.982Z,7.90
2023-04-02T07:14:57.451Z,11.95
2023-04-02T07:15:59.849Z,14.85
2023-04-02T07:17:02.765Z,12.98
2023-04-02T07:18:05.699Z,17.67
2023-04-02T07:19:18.813Z,15.88
2023-04-02T07:20:26.830Z,15.45
2023-04-02T07:21:30.952Z,12.82
2023-04-02T07:22:33.765Z,13.05
2023-04-02T07:23:37.349Z,13.88
2023-04-02T07:24:41.374Z,12.45
2023-04-02T07:25:43.168Z,9.05
2023-04-02T07:26:48.217Z,7.18
2023-04-02T07:27:52.399Z,5.38
2023-04-02T07:28:55.266Z,5.50
2023-04-02T07:29:58.968Z,3.85
2023-04-02T07:31:02.171Z,29.48
2023-04-02T07:32:04.960Z,20.20
2023-04-02T07:33:06.798Z,5.40
2023-04-02T07:34:11.581Z,6.22
2023-04-02T07:35:14.978Z,4.60
2023-04-02T07:36:20.009Z,6.07
2023-04-02T07:37:23.628Z,6.57
2023-04-02T07:38:25.775Z,3.33
2023-04-02T07:39:28.604Z,4.70
2023-04-02T07:40:35.841Z,2.30
2023-04-02T07:41:53.576Z,5.25
2023-04-02T07:42:56.306Z,3.63
2023-04-02T07:43:59.845Z,4.93
2023-04-02T07:45:04.637Z,2.72
2023-04-02T07:46:09.852Z,5.30
2023-04-02T07:47:12.677Z,4.25
2023-04-02T07:48:14.682Z,3.50
2023-04-02T07:49:17.516Z,2.67
2023-04-02T07:50:19.815Z,3.28
2023-04-02T07:51:26.181Z,3.33
2023-04-02T07:52:28.011Z,4.50
2023-04-02T07:53:32.538Z,4.65
2023-04-02T07:54:35.803Z,4.40
2023-04-02T07:55:37.840Z,3.17
2023-04-02T07:56:44.638Z,3.67
2023-04-02T07:57:52.366Z,4.15
2023-04-02T07:58:55.234Z,3.90
2023-04-02T07:59:57.119Z,3.33
2023-04-02T08:01:01.537Z,3.97
2023-04-02T08:02:04.470Z,4.30
2023-04-02T08:03:07.843Z,3.70
2023-04-02T08:04:18.120Z,4.10
2023-04-02T08:05:21.030Z,4.35
2023-04-02T08:06:23.470Z,3.97
2023-04-02T08:07:28.406Z,5.03
2023-04-02T08:08:31.306Z,3.95
2023-04-02T08:09:35.595Z,4.15
2023-04-02T08:10:38.428Z,4.80
2023-04-02T08:11:42.187Z,4.05
2023-04-02T08:12:52.937Z,2.58
2023-04-02T08:13:57.592Z,2.80
2023-04-02T08:15:13.192Z,2.72
2023-04-02T08:16:16.700Z,2.55
2023-04-02T08:17:18.638Z,2.88
2023-04-02T08:18:23.460Z,2.45
2023-04-02T08:19:25.391Z,2.90
2023-04-02T08:20:28.286Z,2.65
2023-04-02T08:21:31.094Z,2.50
2023-04-02T08:22:33.329Z,2.92
2023-04-02T08:23:38.972Z,2.92
2023-04-02T08:24:41.823Z,3.88
2023-04-02T08:25:44.075Z,3.53
2023-04-02T08:26:47.280Z,3.83
2023-04-02T08:27:50.691Z,3.78
2023-04-02T08:28:57.002Z,3.97
2023-04-02T08:30:00.745Z,3.90
2023-04-02T08:31:05.644Z,4.15
2023-04-02T08:32:07.534Z,4.65
2023-04-02T08:33:10.773Z,7.97
2023-04-02T08:34:13.057Z,19.13
2023-04-02T08:35:17.851Z,14.80
2023-04-02T08:36:21.406Z,10.30
2023-04-02T08:37:23.262Z,7.72
2023-04-02T08:38:26.428Z,6.72
2023-04-02T08:39:33.008Z,5.55
2023-04-02T08:40:37.900Z,4.68
2023-04-02T08:41:45.822Z,4.22
2023-04-02T08:42:58.402Z,4.18
2023-04-02T08:44:14.510Z,5.60
2023-04-02T08:46:52.479Z,4.40
2023-04-02T08:48:03.375Z,6.18
2023-04-02T08:49:20.926Z,8.02
2023-04-02T08:50:30.146Z,10.73
2023-04-02T08:51:35.749Z,9.27
2023-04-02T08:52:39.948Z,11.55
2023-04-02T08:53:42.888Z,9.45
2023-04-02T08:54:47.294Z,9.13
2023-04-02T08:55:59.807Z,9.10
2023-04-02T08:57:05.756Z,7.95
2023-04-02T08:58:17.871Z,7.85
2023-04-02T08:59:26.662Z,5.28
2023-04-02T09:00:37.353Z,6.15
2023-04-02T09:01:46.780Z,6.03
2023-04-02T09:02:54.134Z,5.70
2023-04-02T09:03:59.924Z,5.40
2023-04-02T09:05:07.433Z,5.32
2023-04-02T09:06:13.421Z,4.30
2023-04-02T09:07:21.751Z,4.47
2023-04-02T09:08:25.942Z,6.20
2023-04-02T09:09:29.952Z,8.98
2023-04-02T09:10:39.078Z,48.15
2023-04-02T09:11:47.674Z,45.97
2023-04-02T09:12:52.183Z,33.83
2023-04-02T09:13:58.770Z,40.10
2023-04-02T09:15:18.768Z,29.48
2023-04-02T09:16:25.629Z,27.75
2023-04-02T09:17:27.867Z,64.32
2023-04-02T09:18:32.443Z,42.05
2023-04-02T09:19:37.144Z,33.53
2023-04-02T09:20:40.416Z,30.77
2023-04-02T09:21:53.364Z,30.83
2023-04-02T09:22:56.007Z,28.40
2023-04-02T09:23:58.793Z,18.58
2023-04-02T09:25:02.484Z,27.33
2023-04-02T09:26:21.334Z,35.33
2023-04-02T09:27:31.038Z,45.67
2023-04-02T09:28:34.621Z,41.75
2023-04-02T09:29:44.170Z,30.05
2023-04-02T09:30:58.226Z,33.60
2023-04-02T09:32:09.490Z,20.67
2023-04-02T09:33:12.945Z,25.27
2023-04-02T09:34:28.355Z,19.60
2023-04-02T09:35:40.058Z,14.00
2023-04-02T09:36:42.922Z,14.50
2023-04-02T09:37:49.844Z,13.98
2023-04-02T09:39:06.409Z,11.32
2023-04-02T09:40:26.233Z,12.85
2023-04-02T09:41:30.714Z,16.55
2023-04-02T09:42:38.064Z,10.65
2023-04-02T09:43:43.216Z,12.50
2023-04-02T09:44:47.738Z,11.40
2023-04-02T09:45:58.473Z,9.52
2023-04-02T09:47:03.978Z,10.02
2023-04-02T09:48:21.611Z,10.90
2023-04-02T09:49:27.421Z,10.77
2023-04-02T09:50:31.706Z,10.77
2023-04-02T09:51:36.534Z,9.57
2023-04-02T09:52:39.339Z,8.68
2023-04-02T09:53:43.142Z,10.18
2023-04-02T09:54:47.951Z,11.13
2023-04-02T09:55:49.704Z,10.02
2023-04-02T09:57:03.127Z,13.60
2023-04-02T09:58:12.295Z,13.30
2023-04-02T09:59:16.689Z,9.38
2023-04-02T10:01:31.922Z,11.80
2023-04-02T10:02:33.893Z,12.82
2023-04-02T10:03:36.706Z,11.32
2023-04-02T10:04:44.360Z,12.18
2023-04-02T10:05:48.724Z,7.97
2023-04-02T10:06:50.746Z,7.43
2023-04-02T10:07:56.195Z,7.15
2023-04-02T10:08:59.342Z,4.72
2023-04-02T10:10:02.473Z,4.47
2023-04-02T10:11:10.046Z,5.63
2023-04-02T10:12:13.892Z,5.25
2023-04-02T10:13:21.394Z,5.40
2023-04-02T10:14:29.159Z,5.78
2023-04-02T10:15:35.316Z,5.38
2023-04-02T10:16:44.392Z,6.35
2023-04-02T10:17:50.415Z,5.82
2023-04-02T10:18:55.902Z,5.95
2023-04-02T10:20:00.388Z,6.00
2023-04-02T10:21:05.049Z,5.53
2023-04-02T10:22:14.053Z,5.35
2023-04-02T10:23:16.582Z,5.95
2023-04-02T10:24:20.763Z,5.70
2023-04-02T10:25:25.779Z,6.13
2023-04-02T10:26:43.300Z,6.82
2023-04-02T10:27:51.158Z,6.88
2023-04-02T10:29:09.395Z,7.07
2023-04-02T10:30:16.408Z,6.82
2023-04-02T10:31:25.308Z,7.10
2023-04-02T10:32:32.039Z,7.38
2023-04-02T10:33:38.472Z,8.43
2023-04-02T10:34:43.871Z,8.50
2023-04-02T10:35:54.473Z,8.82
2023-04-02T10:36:59.209Z,8.38
2023-04-02T10:38:23.276Z,8.82
2023-04-02T10:39:30.384Z,8.57
2023-04-02T10:40:36.582Z,9.07
2023-04-02T10:41:46.784Z,9.60
2023-04-02T10:42:53.905Z,9.48
2023-04-02T10:44:20.487Z,9.75
2023-04-02T10:45:34.399Z,9.00
2023-04-02T10:46:43.845Z,11.30
2023-04-02T10:47:51.135Z,9.90
2023-04-02T10:49:01.839Z,10.40
2023-04-02T10:50:21.877Z,10.65
2023-04-02T10:51:29.795Z,9.45
2023-04-02T10:52:37.270Z,9.70
2023-04-02T10:53:42.797Z,10.07
2023-04-02T10:54:49.135Z,12.73
2023-04-02T10:55:55.136Z,10.05
2023-04-02T10:57:03.785Z,12.38
2023-04-02T10:58:09.650Z,10.15
2023-04-02T10:59:17.146Z,8.63
2023-04-02T11:00:23.975Z,9.13
2023-04-02T11:01:28.686Z,9.20
2023-04-02T11:02:39.407Z,7.75
2023-04-02T11:03:45.609Z,7.72
2023-04-02T11:04:48.315Z,8.38
2023-04-02T11:05:52.534Z,8.05
2023-04-02T11:07:07.269Z,8.50
2023-04-02T11:08:19.860Z,8.80
2023-04-02T11:09:26.598Z,9.38
2023-04-02T11:10:31.615Z,8.82
2023-04-02T11:11:37.547Z,7.20
2023-04-02T11:12:42.889Z,6.20
2023-04-02T11:13:57.574Z,5.60
2023-04-02T11:14:59.674Z,5.72
2023-04-02T11:16:03.840Z,5.68
2023-04-02T11:17:05.807Z,6.28
2023-04-02T11:18:21.851Z,5.60
2023-04-02T11:19:29.116Z,4.80
2023-04-02T11:20:58.125Z,4.60
2023-04-02T11:22:03.786Z,4.53
2023-04-02T11:23:10.937Z,4.28
2023-04-02T11:24:26.422Z,5.13
2023-04-02T11:25:29.314Z,4.70
2023-04-02T11:26:49.796Z,5.15
2023-04-02T11:27:52.105Z,5.10
2023-04-02T11:29:03.039Z,4.63
2023-04-02T11:30:08.928Z,4.53
2023-04-02T11:31:20.174Z,5.13
2023-04-02T11:32:35.597Z,4.72
2023-04-02T11:33:45.611Z,4.88
2023-04-02T11:35:29.133Z,4.65
2023-04-02T11:37:05.087Z,4.30
2023-04-02T11:38:46.301Z,4.35
2023-04-02T11:39:56.769Z,3.75
2023-04-02T11:41:00.114Z,4.15
2023-04-02T11:42:04.543Z,4.68
2023-04-02T11:43:43.780Z,4.40
2023-04-02T11:44:45.770Z,4.60
2023-04-02T11:45:55.339Z,5.00
2023-04-02T11:47:18.264Z,5.90
2023-04-02T11:48:28.817Z,5.32
2023-04-02T11:50:01.518Z,5.55
2023-04-02T11:51:11.818Z,5.47
2023-04-02T11:52:22.823Z,5.28
2023-04-02T11:53:29.978Z,5.82
2023-04-02T11:54:37.947Z,5.40
2023-04-02T11:55:41.666Z,6.70
2023-04-02T11:56:46.436Z,5.50
2023-04-02T11:58:32.085Z,6.13
2023-04-02T11:59:40.318Z,5.78
2023-04-02T12:01:00.992Z,5.32
2023-04-02T12:02:09.578Z,6.18
2023-04-02T12:03:25.661Z,6.55
2023-04-02T12:05:09.549Z,5.55
2023-04-02T12:06:20.086Z,4.97
2023-04-02T12:07:58.431Z,5.15
2023-04-02T12:09:05.906Z,5.05
2023-04-02T12:10:17.467Z,5.50
2023-04-02T12:11:32.115Z,4.93
2023-04-02T12:12:37.628Z,5.30
2023-04-02T12:13:51.885Z,6.00
2023-04-02T12:14:55.844Z,6.78
2023-04-02T12:15:58.248Z,6.88
2023-04-02T12:17:03.308Z,6.90
2023-04-02T12:18:12.119Z,6.65
2023-04-02T12:19:16.257Z,7.20
2023-04-02T12:20:27.297Z,7.13
2023-04-02T12:21:30.750Z,7.03
2023-04-02T12:22:33.128Z,6.28
2023-04-02T12:23:37.236Z,6.10
2023-04-02T12:24:40.624Z,7.40
2023-04-02T12:25:46.364Z,6.35
2023-04-02T12:26:48.792Z,7.13
2023-04-02T12:28:05.848Z,6.43
2023-04-02T12:29:20.992Z,6.72
2023-04-02T12:30:28.672Z,7.97
2023-04-02T12:31:30.714Z,6.25
2023-04-02T12:32:33.591Z,7.32
2023-04-02T12:33:38.016Z,9.32
2023-04-02T12:34:46.468Z,8.50
2023-04-02T12:35:51.586Z,9.45
2023-04-02T12:36:55.728Z,9.68
2023-04-02T12:37:58.610Z,8.27
2023-04-02T12:39:00.806Z,9.57
2023-04-02T12:40:18.307Z,6.10
2023-04-02T12:41:24.299Z,5.30
2023-04-02T12:42:32.218Z,5.72
2023-04-02T12:43:35.701Z,7.57
2023-04-02T12:44:38.524Z,5.85
2023-04-02T12:45:40.417Z,5.38
2023-04-02T12:46:47.229Z,6.57
2023-04-02T12:47:49.246Z,8.25
2023-04-02T12:48:52.127Z,7.38
2023-04-02T12:49:55.966Z,6.15
2023-04-02T12:51:00.684Z,5.72
2023-04-02T12:52:04.372Z,6.20
2023-04-02T12:53:20.665Z,5.80
2023-04-02T12:54:22.691Z,6.38
2023-04-02T12:55:27.220Z,6.30
2023-04-02T12:56:29.700Z,5.30
2023-04-02T12:57:36.270Z,6.05
2023-04-02T12:58:41.413Z,4.93
2023-04-02T12:59:43.784Z,5.80
2023-04-02T13:00:47.956Z,5.10
2023-04-02T13:01:56.404Z,5.57
2023-04-02T13:03:14.568Z,5.53
2023-04-02T13:04:16.719Z,4.72
2023-04-02T13:05:33.581Z,4.80
2023-04-02T13:06:38.494Z,4.40
2023-04-02T13:07:41.952Z,4.50
2023-04-02T13:08:44.778Z,5.20
2023-04-02T13:09:47.904Z,5.28
2023-04-02T13:10:54.476Z,5.05
2023-04-02T13:11:56.718Z,4.53
2023-04-02T13:13:02.145Z,4.60
2023-04-02T13:14:06.925Z,5.07
2023-04-02T13:15:19.959Z,5.00
2023-04-02T13:16:27.803Z,5.55
2023-04-02T13:17:44.142Z,5.57
2023-04-02T13:18:48.028Z,4.78
2023-04-02T13:19:51.039Z,5.35
2023-04-02T13:20:57.360Z,5.72
2023-04-02T13:22:02.885Z,6.07
2023-04-02T13:23:23.854Z,6.55
2023-04-02T13:24:28.218Z,6.10
2023-04-02T13:25:31.764Z,6.18
2023-04-02T13:26:36.727Z,7.25
2023-04-02T13:27:39.502Z,8.10
2023-04-02T13:28:41.829Z,8.38
2023-04-02T13:29:45.011Z,7.78
2023-04-02T13:30:46.965Z,7.68
2023-04-02T13:31:50.365Z,7.93
2023-04-02T13:32:53.489Z,7.82
2023-04-02T13:33:56.972Z,8.27
2023-04-02T13:34:59.697Z,8.43
2023-04-02T13:36:01.864Z,8.82
2023-04-02T13:37:06.040Z,8.85
2023-04-02T13:38:08.645Z,9.55
2023-04-02T13:39:15.308Z,8.98
2023-04-02T13:40:19.150Z,8.80
2023-04-02T13:41:23.686Z,8.50
2023-04-02T13:42:26.991Z,8.95
2023-04-02T13:43:28.802Z,8.65
2023-04-02T13:44:33.923Z,7.50
2023-04-02T13:45:37.973Z,7.30
2023-04-02T13:46:40.830Z,8.65
2023-04-02T13:47:42.670Z,8.18
2023-04-02T13:48:45.847Z,8.20
2023-04-02T13:49:47.659Z,7.90
2023-04-02T13:50:50.466Z,7.63
2023-04-02T13:51:53.832Z,8.13
2023-04-02T13:53:00.262Z,7.82
2023-04-02T13:54:02.086Z,8.27
2023-04-02T13:55:05.912Z,9.50
2023-04-02T13:56:08.448Z,9.43
2023-04-02T13:57:11.578Z,9.90
2023-04-02T13:58:13.989Z,9.02
2023-04-02T13:59:17.284Z,8.75
2023-04-02T14:00:20.562Z,9.60
2023-04-02T14:01:23.966Z,8.07
2023-04-02T14:02:25.881Z,8.55
2023-04-02T14:03:28.701Z,8.32
2023-04-02T14:04:38.908Z,9.48
2023-04-02T14:05:47.116Z,9.32
2023-04-02T14:07:17.429Z,9.02
2023-04-02T14:08:24.306Z,8.50
2023-04-02T14:09:32.370Z,8.60
2023-04-02T14:10:45.036Z,8.27
2023-04-02T14:11:52.374Z,8.73
2023-04-02T14:13:07.051Z,8.50
2023-04-02T14:14:21.778Z,8.95
2023-04-02T14:15:36.475Z,9.27
2023-04-02T14:16:50.725Z,8.55
2023-04-02T14:18:07.239Z,9.23
2023-04-02T14:19:28.702Z,9.23
2023-04-02T14:20:38.998Z,8.52
2023-04-02T14:21:51.983Z,8.10
2023-04-02T14:23:12.962Z,8.60
2023-04-02T14:24:19.423Z,8.48
2023-04-02T14:25:26.213Z,9.02
2023-04-02T14:26:39.490Z,7.60
2023-04-02T14:27:52.379Z,8.07
2023-04-02T14:29:01.259Z,7.97
2023-04-02T14:30:07.765Z,8.57
2023-04-02T14:31:18.215Z,7.97
2023-04-02T14:32:23.618Z,7.05
2023-04-02T14:33:33.870Z,7.72
2023-04-02T14:34:43.471Z,7.57
2023-04-02T14:35:46.473Z,6.85
2023-04-02T14:36:56.450Z,6.88
2023-04-02T14:38:03.874Z,6.72
2023-04-02T14:39:10.218Z,6.43
2023-04-02T14:40:20.309Z,6.43
2023-04-02T14:41:26.591Z,6.65
2023-04-02T14:42:32.405Z,7.28
2023-04-02T14:43:40.808Z,6.75
2023-04-02T14:44:46.919Z,6.50
2023-04-02T14:46:01.435Z,5.55
2023-04-02T14:47:13.150Z,5.43